Time;durP1;ratioP1;P1;durP2;ratioP2;P2;SDS_P1;SDS_P2;PMS_P1;PMS_P2;Temp;Humidity;BMP_temperature;BMP_pressure;BME280_temperature;BME280_humidity;BME280_pressure;Samples;Min_cycle;Max_cycle;Signal;HPM_P1;HPM_P2
2023/05/31 00:01:39;;;;;;;6.05;1.65;;;;;;;;;;6085432;23;20034;-58
2023/05/31 00:04:12;;;;;;;3.70;1.48;;;;;;;;;;6086768;23;20089;-59
2023/05/31 00:06:40;;;;;;;5.85;1.23;;;;;;;;;;6083283;23;20030;-58
2023/05/31 00:09:13;;;;;;;5.63;1.58;;;;;;;;;;6087793;23;20026;-58
2023/05/31 00:11:41;;;;;;;3.65;1.17;;;;;;;;;;6082104;23;20439;-58
2023/05/31 00:14:08;;;;;;;4.20;1.50;;;;;;;;;;6079155;23;20033;-49
2023/05/31 00:16:55;;;;;;;3.45;1.50;;;;;;;;;;6088916;23;20061;-51
2023/05/31 00:19:50;;;;;;;4.15;1.35;;;;;;;;;;6116126;23;20619;-46
2023/05/31 00:22:24;;;;;;;3.75;1.58;;;;;;;;;;6115593;23;20030;-51
2023/05/31 00:25:05;;;;;;;3.58;1.48;;;;;;;;;;6115839;23;20553;-65
2023/05/31 00:27:46;;;;;;;3.85;1.35;;;;;;;;;;6115364;23;20490;-46
2023/05/31 00:30:13;;;;;;;4.07;1.30;;;;;;;;;;6113221;23;20502;-48
2023/05/31 00:32:48;;;;;;;4.55;1.10;;;;;;;;;;6115632;23;20034;-50
2023/05/31 00:35:15;;;;;;;;;;;;;;;;;;6116243;23;20022;-46
2023/05/31 00:37:43;;;;;;;2.80;0.95;;;;;;;;;;6116664;23;19968;-50
2023/05/31 00:40:16;;;;;;;3.85;1.40;;;;;;;;;;6113079;23;20018;-50
2023/05/31 00:42:44;;;;;;;3.50;1.13;;;;;;;;;;6116658;23;20093;-50
2023/05/31 00:45:17;;;;;;;6.10;1.42;;;;;;;;;;6115467;23;20026;-55
2023/05/31 00:47:45;;;;;;;3.22;1.13;;;;;;;;;;6115353;23;20056;-56
2023/05/31 00:50:12;;;;;;;5.22;1.10;;;;;;;;;;6115499;23;20029;-54
2023/05/31 00:52:46;;;;;;;6.22;1.70;;;;;;;;;;6115671;23;20080;-50
2023/05/31 00:55:14;;;;;;;3.65;1.25;;;;;;;;;;6116513;23;20048;-64
2023/05/31 00:57:48;;;;;;;3.28;1.15;;;;;;;;;;6114709;23;20032;-58
2023/05/31 01:00:15;;;;;;;2.83;1.15;;;;;;;;;;6115541;23;20545;-58
2023/05/31 01:02:43;;;;;;;;;;;;;;;;;;6116116;23;20022;-58
2023/05/31 01:05:17;;;;;;;5.35;1.30;;;;;;;;;;6116029;23;19924;-58
2023/05/31 01:07:45;;;;;;;5.57;1.52;;;;;;;;;;6114016;23;20025;-58
2023/05/31 01:10:22;;;;;;;3.63;1.45;;;;;;;;;;6115736;23;20032;-55
2023/05/31 01:13:07;;;;;;;5.85;1.60;;;;;;;;;;6115274;23;20476;-64
2023/05/31 01:15:44;;;;;;;5.72;1.52;;;;;;;;;;6113543;23;20026;-65
2023/05/31 01:18:32;;;;;;;5.65;1.40;;;;;;;;;;6113453;23;20086;-65
2023/05/31 01:21:03;;;;;;;6.40;1.80;;;;;;;;;;6111154;23;20058;-53
2023/05/31 01:23:48;;;;;;;3.53;1.25;;;;;;;;;;6116875;23;20431;-49
2023/05/31 01:26:30;;;;;;;4.90;1.50;;;;;;;;;;6115080;23;20036;-51
2023/05/31 01:29:05;;;;;;;4.43;1.27;;;;;;;;;;6114991;23;20085;-50
2023/05/31 01:31:33;;;;;;;3.17;1.10;;;;;;;;;;6115717;23;20085;-50
2023/05/31 01:34:07;;;;;;;3.25;1.33;;;;;;;;;;6115583;23;20033;-50
2023/05/31 01:36:35;;;;;;;;;;;;;;;;;;6115380;23;20493;-53
2023/05/31 01:39:09;;;;;;;8.27;1.50;;;;;;;;;;6115659;23;20337;-65
2023/05/31 01:41:38;;;;;;;7.05;1.77;;;;;;;;;;6115761;23;20022;-65
2023/05/31 01:44:06;;;;;;;6.18;1.67;;;;;;;;;;6115105;23;20081;-63
2023/05/31 01:46:41;;;;;;;3.97;1.50;;;;;;;;;;6111686;23;20026;-65
2023/05/31 01:49:09;;;;;;;5.53;1.30;;;;;;;;;;6115574;23;20096;-53
2023/05/31 01:51:37;;;;;;;5.38;1.50;;;;;;;;;;6112682;23;20026;-59
2023/05/31 01:54:12;;;;;;;4.65;1.20;;;;;;;;;;6114861;23;20370;-59
2023/05/31 01:56:40;;;;;;;6.90;1.88;;;;;;;;;;6111408;23;20505;-58
2023/05/31 01:59:16;;;;;;;10.00;2.20;;;;;;;;;;6115303;23;20033;-59
2023/05/31 02:01:43;;;;;;;7.05;1.65;;;;;;;;;;6113442;23;20534;-59
2023/05/31 02:04:10;;;;;;;5.70;1.80;;;;;;;;;;6115148;23;20498;-59
2023/05/31 02:06:44;;;;;;;9.60;1.58;;;;;;;;;;6113649;23;20081;-59
2023/05/31 02:09:12;;;;;;;4.03;1.83;;;;;;;;;;6115789;23;20553;-54
2023/05/31 02:11:46;;;;;;;9.98;1.92;;;;;;;;;;6114701;23;20026;-49
2023/05/31 02:14:13;;;;;;;8.10;1.77;;;;;;;;;;6115555;23;20108;-48
2023/05/31 02:16:54;;;;;;;6.05;1.80;;;;;;;;;;6112475;23;20029;-49
2023/05/31 02:19:28;;;;;;;9.95;2.20;;;;;;;;;;6116127;23;20022;-64
2023/05/31 02:22:02;;;;;;;11.57;2.00;;;;;;;;;;6115213;23;20030;-56
2023/05/31 02:24:32;;;;;;;5.70;1.90;;;;;;;;;;6115949;23;20026;-54
2023/05/31 02:27:00;;;;;;;10.55;2.17;;;;;;;;;;6111351;23;20034;-54
2023/05/31 02:29:35;;;;;;;9.30;1.98;;;;;;;;;;6116637;23;20030;-53
2023/05/31 02:32:02;;;;;;;7.90;2.55;;;;;;;;;;6113565;23;20026;-55
2023/05/31 02:34:30;;;;;;;10.45;2.13;;;;;;;;;;6116170;23;20033;-53
2023/05/31 02:37:04;;;;;;;13.35;2.97;;;;;;;;;;6116188;23;20024;-53
2023/05/31 02:39:31;;;;;;;10.10;2.53;;;;;;;;;;6110918;23;20030;-53
2023/05/31 02:42:05;;;;;;;7.72;2.03;;;;;;;;;;6112145;23;20098;-56
2023/05/31 02:44:32;;;;;;;15.10;2.42;;;;;;;;;;6116285;23;20565;-56
2023/05/31 02:47:00;;;;;;;10.05;2.70;;;;;;;;;;6112627;23;20390;-53
2023/05/31 02:49:34;;;;;;;9.25;2.30;;;;;;;;;;6112920;23;20026;-52
2023/05/31 02:52:01;;;;;;;8.48;2.53;;;;;;;;;;6115057;23;20022;-51
2023/05/31 02:54:28;;;;;;;13.43;2.47;;;;;;;;;;6112435;23;20026;-49
2023/05/31 02:57:02;;;;;;;8.05;2.53;;;;;;;;;;6114605;23;20089;-49
2023/05/31 02:59:30;;;;;;;14.82;2.42;;;;;;;;;;6116337;23;20081;-50
2023/05/31 03:02:03;;;;;;;10.52;2.72;;;;;;;;;;6114179;23;20022;-51
2023/05/31 03:04:31;;;;;;;11.30;3.08;;;;;;;;;;6114864;23;20482;-55
2023/05/31 03:06:58;;;;;;;12.90;2.67;;;;;;;;;;6116741;23;20030;-51
2023/05/31 03:09:32;;;;;;;13.13;2.90;;;;;;;;;;6115778;23;20018;-55
2023/05/31 03:12:00;;;;;;;11.25;3.00;;;;;;;;;;6112415;23;20030;-53
2023/05/31 03:14:33;;;;;;;13.05;3.00;;;;;;;;;;6115849;23;20057;-65
2023/05/31 03:17:07;;;;;;;19.85;3.40;;;;;;;;;;6116771;23;20061;-52
2023/05/31 03:19:48;;;;;;;18.83;4.10;;;;;;;;;;6116197;23;20038;-59
2023/05/31 03:22:15;;;;;;;20.30;4.00;;;;;;;;;;6115490;23;20493;-58
2023/05/31 03:24:50;;;;;;;20.58;4.03;;;;;;;;;;6114616;23;20029;-59
2023/05/31 03:27:23;;;;;;;17.05;3.60;;;;;;;;;;6115634;23;20097;-59
2023/05/31 03:29:51;;;;;;;19.38;4.43;;;;;;;;;;6116505;23;20058;-59
2023/05/31 03:32:18;;;;;;;24.88;4.38;;;;;;;;;;6116657;23;20053;-59
2023/05/31 03:34:52;;;;;;;24.65;4.78;;;;;;;;;;6117990;23;20400;-54
2023/05/31 03:37:19;;;;;;;25.60;4.38;;;;;;;;;;6112335;23;20030;-53
2023/05/31 03:39:46;;;;;;;16.60;3.78;;;;;;;;;;6117682;23;20057;-56
2023/05/31 03:42:19;;;;;;;23.63;4.38;;;;;;;;;;6115668;23;20097;-55
2023/05/31 03:44:47;;;;;;;29.95;4.72;;;;;;;;;;6115388;23;20078;-59
2023/05/31 03:47:21;;;;;;;22.63;4.57;;;;;;;;;;6116420;23;20355;-47
2023/05/31 03:49:48;;;;;;;30.95;5.63;;;;;;;;;;6116631;23;20054;-50
2023/05/31 03:52:15;;;;;;;26.25;4.55;;;;;;;;;;6115713;23;20470;-48
2023/05/31 03:54:50;;;;;;;31.52;5.40;;;;;;;;;;6117020;23;20022;-51
2023/05/31 03:57:17;;;;;;;29.90;5.07;;;;;;;;;;6114117;23;20086;-49
2023/05/31 03:59:50;;;;;;;25.17;4.65;;;;;;;;;;6116479;23;20022;-54
2023/05/31 04:02:18;;;;;;;27.25;5.18;;;;;;;;;;6113626;23;20037;-58
2023/05/31 04:04:45;;;;;;;22.42;5.40;;;;;;;;;;6112964;23;20026;-59
2023/05/31 04:07:18;;;;;;;26.83;4.63;;;;;;;;;;6114959;23;20042;-59
2023/05/31 04:09:46;;;;;;;24.60;5.57;;;;;;;;;;6116498;23;20743;-60
2023/05/31 04:12:19;;;;;;;24.98;6.03;;;;;;;;;;6117391;23;20030;-59
2023/05/31 04:14:47;;;;;;;30.45;4.80;;;;;;;;;;6116626;23;20394;-49
2023/05/31 04:17:14;;;;;;;24.70;5.05;;;;;;;;;;6112315;23;20072;-54
2023/05/31 04:19:54;;;;;;;30.00;6.47;;;;;;;;;;6114639;23;20081;-50
2023/05/31 04:22:22;;;;;;;22.58;5.60;;;;;;;;;;6114602;23;20619;-51
2023/05/31 04:24:55;;;;;;;25.67;5.07;;;;;;;;;;6116618;23;20525;-51
2023/05/31 04:27:32;;;;;;;32.25;5.45;;;;;;;;;;6115774;23;20022;-50
2023/05/31 04:30:06;;;;;;;27.02;5.30;;;;;;;;;;6112075;23;20037;-59
2023/05/31 04:32:40;;;;;;;28.65;5.78;;;;;;;;;;6114672;23;20065;-51
2023/05/31 04:35:14;;;;;;;25.88;5.40;;;;;;;;;;6115107;23;20646;-52
2023/05/31 04:37:42;;;;;;;30.95;6.10;;;;;;;;;;6115276;23;20026;-53
2023/05/31 04:40:15;;;;;;;34.13;6.10;;;;;;;;;;6115223;23;20033;-56
2023/05/31 04:42:43;;;;;;;35.25;6.78;;;;;;;;;;6114570;23;20026;-53
2023/05/31 04:45:16;;;;;;;24.75;4.72;;;;;;;;;;6115438;23;20554;-56
2023/05/31 04:47:46;;;;;;;23.45;6.05;;;;;;;;;;6114939;23;20081;-54
2023/05/31 04:50:13;;;;;;;26.17;5.75;;;;;;;;;;6114120;23;20644;-51
2023/05/31 04:52:48;;;;;;;31.80;6.05;;;;;;;;;;6111135;23;20034;-52
2023/05/31 04:55:16;;;;;;;29.10;6.05;;;;;;;;;;6107915;23;20029;-53
2023/05/31 04:57:50;;;;;;;38.70;6.85;;;;;;;;;;6111593;23;20085;-50
2023/05/31 05:00:19;;;;;;;23.73;6.00;;;;;;;;;;6113145;23;20896;-56
2023/05/31 05:02:46;;;;;;;27.70;6.03;;;;;;;;;;6115802;23;20034;-59
2023/05/31 05:05:21;;;;;;;29.98;6.00;;;;;;;;;;6115929;23;20026;-60
2023/05/31 05:07:48;;;;;;;33.92;6.60;;;;;;;;;;6109287;23;20030;-59
2023/05/31 05:10:21;;;;;;;28.58;6.28;;;;;;;;;;6114728;23;20085;-60
2023/05/31 05:12:49;;;;;;;35.38;6.35;;;;;;;;;;6114882;23;20089;-59
2023/05/31 05:15:22;;;;;;;38.75;7.20;;;;;;;;;;6116205;23;20026;-59
2023/05/31 05:18:02;;;;;;;34.50;7.60;;;;;;;;;;6114754;23;20101;-60
2023/05/31 05:20:37;;;;;;;35.58;6.90;;;;;;;;;;6115625;23;20430;-60
2023/05/31 05:23:07;;;;;;;40.88;7.45;;;;;;;;;;6114778;23;20411;-59
2023/05/31 05:25:35;;;;;;;34.15;7.05;;;;;;;;;;6115367;23;20022;-60
2023/05/31 05:28:10;;;;;;;39.22;6.82;;;;;;;;;;6116861;23;20021;-51
2023/05/31 05:30:37;;;;;;;;;;;;;;;;;;6117074;23;20113;-65
2023/05/31 05:33:12;;;;;;;42.40;7.57;;;;;;;;;;6115660;23;20379;-65
2023/05/31 05:35:39;;;;;;;39.35;7.93;;;;;;;;;;6116125;23;20495;-65
2023/05/31 05:38:06;;;;;;;40.33;7.45;;;;;;;;;;6112230;23;20030;-64
2023/05/31 05:40:40;;;;;;;36.80;6.80;;;;;;;;;;6115078;23;20085;-65
2023/05/31 05:43:07;;;;;;;34.75;7.50;;;;;;;;;;6117016;23;20497;-64
2023/05/31 05:45:34;;;;;;;33.58;6.75;;;;;;;;;;6116216;23;20081;-58
2023/05/31 05:48:08;;;;;;;37.80;7.07;;;;;;;;;;6110814;23;20082;-59
2023/05/31 05:50:35;;;;;;;;;;;;;;;;;;6114179;23;20033;-59
2023/05/31 05:53:08;;;;;;;33.67;7.45;;;;;;;;;;6116788;23;19918;-58
2023/05/31 05:55:36;;;;;;;35.92;7.45;;;;;;;;;;6110867;23;20057;-60
2023/05/31 05:58:03;;;;;;;33.75;7.45;;;;;;;;;;6115957;23;20085;-65
2023/05/31 06:00:36;;;;;;;35.30;7.78;;;;;;;;;;6115473;23;20022;-54
2023/05/31 06:03:04;;;;;;;37.95;7.65;;;;;;;;;;6115904;23;20030;-50
2023/05/31 06:05:38;;;;;;;31.35;7.88;;;;;;;;;;6116107;23;20053;-50
2023/05/31 06:08:05;;;;;;;;;;;;;;;;;;6115571;23;20026;-51
2023/05/31 06:10:33;;;;;;;33.00;7.50;;;;;;;;;;6115599;23;19976;-53
2023/05/31 06:13:07;;;;;;;32.45;6.75;;;;;;;;;;6116155;23;20029;-53
2023/05/31 06:15:34;;;;;;;;;;;;;;;;;;6116825;23;20089;-54
2023/05/31 06:18:01;;;;;;;23.52;7.20;;;;;;;;;;6115406;23;19984;-55
2023/05/31 06:20:42;;;;;;;30.23;6.93;;;;;;;;;;6115955;23;20100;-54
2023/05/31 06:23:09;;;;;;;31.65;6.88;;;;;;;;;;6114278;23;20026;-55
2023/05/31 06:25:43;;;;;;;29.13;6.15;;;;;;;;;;6113962;23;20078;-64
2023/05/31 06:28:11;;;;;;;25.67;6.47;;;;;;;;;;6115830;23;20028;-57
2023/05/31 06:30:44;;;;;;;30.30;6.70;;;;;;;;;;6115656;23;20434;-56
2023/05/31 06:33:12;;;;;;;31.95;6.88;;;;;;;;;;6115259;23;20107;-57
2023/05/31 06:35:42;;;;;;;30.67;6.28;;;;;;;;;;6115546;23;20085;-57
2023/05/31 06:38:16;;;;;;;25.00;6.45;;;;;;;;;;6111423;23;20089;-56
2023/05/31 06:40:44;;;;;;;28.30;6.38;;;;;;;;;;6118776;23;20029;-57
2023/05/31 06:43:18;;;;;;;28.23;5.95;;;;;;;;;;6118015;23;20994;-65
2023/05/31 06:45:45;;;;;;;28.48;6.53;;;;;;;;;;6118904;23;20026;-65
2023/05/31 06:48:12;;;;;;;23.75;5.30;;;;;;;;;;6117182;23;20081;-65
2023/05/31 06:50:47;;;;;;;25.23;5.65;;;;;;;;;;6117633;23;20344;-64
2023/05/31 06:53:14;;;;;;;25.50;6.07;;;;;;;;;;6117894;23;20081;-53
2023/05/31 06:55:48;;;;;;;27.52;6.55;;;;;;;;;;6118372;23;20540;-64
2023/05/31 06:58:15;;;;;;;17.60;5.22;;;;;;;;;;6118028;23;20044;-64
2023/05/31 07:00:43;;;;;;;28.58;5.95;;;;;;;;;;6117118;23;20028;-65
2023/05/31 07:03:17;;;;;;;26.10;6.25;;;;;;;;;;6117407;23;20054;-64
2023/05/31 07:05:44;;;;;;;19.17;5.32;;;;;;;;;;6117716;23;20029;-65
2023/05/31 07:08:18;;;;;;;19.45;5.35;;;;;;;;;;6117494;23;20025;-66
2023/05/31 07:10:54;;;;;;;24.00;5.43;;;;;;;;;;6119276;23;20018;-50
2023/05/31 07:13:22;;;;;;;17.73;5.88;;;;;;;;;;6116384;23;20081;-50
2023/05/31 07:15:50;;;;;;;20.63;4.90;;;;;;;;;;6117827;23;20029;-51
2023/05/31 07:18:31;;;;;;;23.83;5.25;;;;;;;;;;6116564;23;20065;-50
2023/05/31 07:21:04;;;;;;;19.65;5.70;;;;;;;;;;6115604;23;20086;-65
2023/05/31 07:23:45;;;;;;;20.15;5.20;;;;;;;;;;6117417;23;20026;-57
2023/05/31 07:26:13;;;;;;;24.73;6.35;;;;;;;;;;6118302;23;20033;-54
2023/05/31 07:28:53;;;;;;;30.90;5.70;;;;;;;;;;6117177;23;20467;-57
2023/05/31 07:31:21;;;;;;;21.95;4.75;;;;;;;;;;6117291;23;20871;-57
2023/05/31 07:33:55;;;;;;;17.92;5.57;;;;;;;;;;6118308;23;20085;-57
2023/05/31 07:36:28;;;;;;;22.70;6.00;;;;;;;;;;6117332;23;20018;-56
2023/05/31 07:39:05;;;;;;;23.35;5.05;;;;;;;;;;6116349;23;20501;-57
2023/05/31 07:41:39;;;;;;;20.40;5.00;;;;;;;;;;6114655;23;20018;-57
2023/05/31 07:44:16;;;;;;;17.83;4.70;;;;;;;;;;6117454;23;20029;-56
2023/05/31 07:46:49;;;;;;;19.60;4.55;;;;;;;;;;6114493;23;20056;-56
2023/05/31 07:49:16;;;;;;;17.17;4.93;;;;;;;;;;6116682;23;20553;-64
2023/05/31 07:51:50;;;;;;;20.85;4.90;;;;;;;;;;6116681;23;20101;-58
2023/05/31 07:54:18;;;;;;;22.77;5.65;;;;;;;;;;6116985;23;20888;-57
2023/05/31 07:56:45;;;;;;;19.55;5.55;;;;;;;;;;6115440;23;20045;-56
2023/05/31 07:59:20;;;;;;;13.10;4.15;;;;;;;;;;6116549;23;20077;-56
2023/05/31 08:01:48;;;;;;;15.68;4.65;;;;;;;;;;6116203;23;20497;-57
2023/05/31 08:04:22;;;;;;;13.30;4.50;;;;;;;;;;6117228;23;20030;-56
2023/05/31 08:06:49;;;;;;;15.02;4.75;;;;;;;;;;6117357;23;20576;-56
2023/05/31 08:09:23;;;;;;;17.10;5.35;;;;;;;;;;6118708;23;20032;-58
2023/05/31 08:11:52;;;;;;;16.85;4.95;;;;;;;;;;6116283;23;20505;-58
2023/05/31 08:14:19;;;;;;;17.42;4.75;;;;;;;;;;6116300;23;20142;-58
2023/05/31 08:16:54;;;;;;;14.68;4.50;;;;;;;;;;6116076;23;20025;-58
2023/05/31 08:19:28;;;;;;;13.98;4.38;;;;;;;;;;6116081;23;20029;-58
2023/05/31 08:22:10;;;;;;;18.48;4.78;;;;;;;;;;6112543;23;20030;-56
2023/05/31 08:24:37;;;;;;;15.20;4.53;;;;;;;;;;6116910;23;20029;-57
2023/05/31 08:27:11;;;;;;;14.85;4.57;;;;;;;;;;6115539;23;20330;-56
2023/05/31 08:29:39;;;;;;;17.80;4.82;;;;;;;;;;6116953;23;20032;-55
2023/05/31 08:32:06;;;;;;;15.13;4.30;;;;;;;;;;6112045;23;20403;-56
2023/05/31 08:34:40;;;;;;;13.63;4.57;;;;;;;;;;6117260;23;20022;-57
2023/05/31 08:37:07;;;;;;;12.10;4.57;;;;;;;;;;6113335;23;20386;-56
2023/05/31 08:39:42;;;;;;;11.20;4.38;;;;;;;;;;6117555;23;20489;-57
2023/05/31 08:42:14;;;;;;;13.90;4.78;;;;;;;;;;6116759;23;20030;-56
2023/05/31 08:44:42;;;;;;;9.55;3.85;;;;;;;;;;6116416;23;20022;-57
2023/05/31 08:47:24;;;;;;;12.70;4.45;;;;;;;;;;6116126;23;20085;-64
2023/05/31 08:49:53;;;;;;;10.27;4.10;;;;;;;;;;6116904;23;20048;-52
2023/05/31 08:52:27;;;;;;;12.27;3.85;;;;;;;;;;6116495;23;20498;-54
2023/05/31 08:54:55;;;;;;;15.50;4.03;;;;;;;;;;6117891;23;20025;-51
2023/05/31 08:57:30;;;;;;;14.73;4.15;;;;;;;;;;6115821;23;20077;-54
2023/05/31 08:59:58;;;;;;;11.27;4.55;;;;;;;;;;6116717;23;20077;-51
2023/05/31 09:02:26;;;;;;;11.55;4.00;;;;;;;;;;6112123;23;20089;-55
2023/05/31 09:05:00;;;;;;;16.60;4.43;;;;;;;;;;6115528;23;20389;-56
2023/05/31 09:07:27;;;;;;;14.40;4.32;;;;;;;;;;6116762;23;20026;-58
2023/05/31 09:10:03;;;;;;;12.32;3.75;;;;;;;;;;6115925;23;20065;-57
2023/05/31 09:12:30;;;;;;;9.07;3.95;;;;;;;;;;6116798;23;20030;-57
2023/05/31 09:14:58;;;;;;;9.82;4.03;;;;;;;;;;6115150;23;20029;-58
2023/05/31 09:17:48;;;;;;;10.60;3.72;;;;;;;;;;6116312;23;20018;-58
2023/05/31 09:20:31;;;;;;;10.73;3.67;;;;;;;;;;6116706;23;20033;-59
2023/05/31 09:23:06;;;;;;;13.23;3.45;;;;;;;;;;6115785;23;20026;-59
2023/05/31 09:25:52;;;;;;;7.70;3.10;;;;;;;;;;6117846;23;20022;-59
2023/05/31 09:28:26;;;;;;;8.70;3.40;;;;;;;;;;6115665;23;20026;-58
2023/05/31 09:31:06;;;;;;;8.00;3.22;;;;;;;;;;6115534;23;20022;-59
2023/05/31 09:33:43;;;;;;;6.40;3.10;;;;;;;;;;6115465;23;20731;-57
2023/05/31 09:36:25;;;;;;;6.30;3.20;;;;;;;;;;6115965;23;20025;-57
2023/05/31 09:39:00;;;;;;;7.53;3.38;;;;;;;;;;6116710;23;20026;-57
2023/05/31 09:41:35;;;;;;;5.57;3.10;;;;;;;;;;6117018;23;20074;-57
2023/05/31 09:44:09;;;;;;;5.43;3.05;;;;;;;;;;6114848;23;20026;-57
2023/05/31 09:46:36;;;;;;;;;;;;;;;;;;6118008;23;20025;-56
2023/05/31 09:49:11;;;;;;;8.50;3.30;;;;;;;;;;6115893;23;19947;-52
2023/05/31 09:51:38;;;;;;;8.75;3.20;;;;;;;;;;6116009;23;20018;-54
2023/05/31 09:54:07;;;;;;;;;;;;;;;;;;6117534;23;20045;-53
2023/05/31 09:56:41;;;;;;;8.82;3.38;;;;;;;;;;6117160;23;19980;-51
2023/05/31 09:59:08;;;;;;;9.00;3.33;;;;;;;;;;6115443;23;20025;-56
2023/05/31 10:01:42;;;;;;;6.22;3.13;;;;;;;;;;6116585;23;20085;-58
2023/05/31 10:04:10;;;;;;;6.38;3.20;;;;;;;;;;6116438;23;20414;-57
2023/05/31 10:06:45;;;;;;;7.95;3.10;;;;;;;;;;6114732;23;20029;-56
2023/05/31 10:09:12;;;;;;;;;;;;;;;;;;6116521;23;20108;-55
2023/05/31 10:11:42;;;;;;;8.38;3.53;;;;;;;;;;6116511;23;19952;-65
2023/05/31 10:14:28;;;;;;;7.93;3.58;;;;;;;;;;6114488;23;20053;-56
2023/05/31 10:16:56;;;;;;;4.75;3.22;;;;;;;;;;6115560;23;20030;-66
2023/05/31 10:19:40;;;;;;;6.30;3.40;;;;;;;;;;6115626;23;20032;-65
2023/05/31 10:22:08;;;;;;;5.05;3.05;;;;;;;;;;6114883;23;20077;-66
2023/05/31 10:25:01;;;;;;;9.93;3.60;;;;;;;;;;6112661;23;20477;-65
2023/05/31 10:27:28;;;;;;;6.50;2.97;;;;;;;;;;6117065;23;20026;-65
2023/05/31 10:30:04;;;;;;;6.07;3.20;;;;;;;;;;6115918;23;20030;-59
2023/05/31 10:32:33;;;;;;;7.13;3.38;;;;;;;;;;6117490;23;20081;-59
2023/05/31 10:35:09;;;;;;;9.52;3.40;;;;;;;;;;6110443;23;20021;-59
2023/05/31 10:37:39;;;;;;;6.05;3.28;;;;;;;;;;6115712;23;20057;-59
2023/05/31 10:40:06;;;;;;;8.60;3.30;;;;;;;;;;6116716;23;20108;-58
2023/05/31 10:42:46;;;;;;;6.22;2.85;;;;;;;;;;6115125;23;20037;-49
2023/05/31 10:45:16;;;;;;;6.30;3.28;;;;;;;;;;6116276;23;20086;-58
2023/05/31 10:47:56;;;;;;;4.63;2.88;;;;;;;;;;6116197;23;20022;-59
2023/05/31 10:50:23;;;;;;;6.47;3.22;;;;;;;;;;6115150;23;20037;-59
2023/05/31 10:53:10;;;;;;;6.57;3.22;;;;;;;;;;6115382;23;20407;-58
2023/05/31 10:55:44;;;;;;;5.80;3.25;;;;;;;;;;6114711;23;20100;-59
2023/05/31 10:58:32;;;;;;;8.25;3.38;;;;;;;;;;6113537;23;20065;-54
2023/05/31 11:01:04;;;;;;;7.40;3.60;;;;;;;;;;6110915;23;20021;-51
2023/05/31 11:03:49;;;;;;;7.97;3.70;;;;;;;;;;6114682;23;20022;-53
2023/05/31 11:06:18;;;;;;;6.65;3.67;;;;;;;;;;6116089;23;20022;-53
2023/05/31 11:09:05;;;;;;;6.82;3.38;;;;;;;;;;6111855;23;20026;-59
2023/05/31 11:11:32;;;;;;;8.68;3.53;;;;;;;;;;6117160;23;20431;-59
2023/05/31 11:14:28;;;;;;;9.18;4.47;;;;;;;;;;6113853;23;20101;-59
2023/05/31 11:16:56;;;;;;;9.00;3.50;;;;;;;;;;6115589;23;20049;-59
2023/05/31 11:19:40;;;;;;;11.52;3.75;;;;;;;;;;6114608;23;20274;-59
2023/05/31 11:22:17;;;;;;;6.95;3.35;;;;;;;;;;6115541;23;20513;-58
2023/05/31 11:24:53;;;;;;;6.93;3.10;;;;;;;;;;6112572;23;20033;-59
2023/05/31 11:27:21;;;;;;;7.30;3.25;;;;;;;;;;6118035;23;20490;-57
2023/05/31 11:29:55;;;;;;;11.30;4.22;;;;;;;;;;6118239;23;20029;-58
2023/05/31 11:32:23;;;;;;;6.80;3.20;;;;;;;;;;6115794;23;20402;-58
2023/05/31 11:34:57;;;;;;;7.72;3.58;;;;;;;;;;6118295;23;20026;-57
2023/05/31 11:37:29;;;;;;;7.82;3.25;;;;;;;;;;6117154;23;20025;-58
2023/05/31 11:40:05;;;;;;;;;;;;;;;;;;6118167;23;20030;-59
2023/05/31 11:42:33;;;;;;;5.15;2.92;;;;;;;;;;6118349;23;19940;-59
2023/05/31 11:45:08;;;;;;;6.43;2.97;;;;;;;;;;6117521;23;20022;-59
2023/05/31 11:47:50;;;;;;;4.07;2.80;;;;;;;;;;6115618;23;20089;-59
2023/05/31 11:50:25;;;;;;;5.63;2.72;;;;;;;;;;6114355;23;20018;-59
2023/05/31 11:52:54;;;;;;;5.60;3.05;;;;;;;;;;6117850;23;20049;-59
2023/05/31 11:55:22;;;;;;;5.20;2.90;;;;;;;;;;6116565;23;20023;-56
2023/05/31 11:57:56;;;;;;;5.05;2.80;;;;;;;;;;6116526;23;20026;-57
2023/05/31 12:00:24;;;;;;;6.15;3.00;;;;;;;;;;6117333;23;20085;-55
2023/05/31 12:02:58;;;;;;;4.57;3.00;;;;;;;;;;6116859;23;20033;-56
2023/05/31 12:05:26;;;;;;;4.70;2.80;;;;;;;;;;6117380;23;20026;-59
2023/05/31 12:08:00;;;;;;;7.93;2.80;;;;;;;;;;6116358;23;20057;-59
2023/05/31 12:10:27;;;;;;;;;;;;;;;;;;6117529;23;20030;-64
2023/05/31 12:13:01;;;;;;;4.47;2.90;;;;;;;;;;6115957;23;20325;-65
2023/05/31 12:15:30;;;;;;;5.03;2.80;;;;;;;;;;6117332;23;20109;-64
2023/05/31 12:18:11;;;;;;;7.72;2.88;;;;;;;;;;6112666;23;20405;-64
2023/05/31 12:20:45;;;;;;;7.20;3.05;;;;;;;;;;6116749;23;20097;-64
2023/05/31 12:23:19;;;;;;;3.95;2.38;;;;;;;;;;6117054;23;20036;-55
2023/05/31 12:25:47;;;;;;;3.45;2.40;;;;;;;;;;6116997;23;20028;-52
2023/05/31 12:28:21;;;;;;;4.75;2.75;;;;;;;;;;6116792;23;20081;-54
2023/05/31 12:30:56;;;;;;;4.13;2.88;;;;;;;;;;6117211;23;20030;-54
2023/05/31 12:33:24;;;;;;;6.20;2.38;;;;;;;;;;6113309;23;20086;-53
2023/05/31 12:35:58;;;;;;;4.38;2.95;;;;;;;;;;6116115;23;20034;-65
2023/05/31 12:38:25;;;;;;;;;;;;;;;;;;6118384;23;20025;-58
2023/05/31 12:40:53;;;;;;;6.78;2.47;;;;;;;;;;6116319;23;19920;-58
2023/05/31 12:43:30;;;;;;;8.10;2.70;;;;;;;;;;6117330;23;20078;-58
2023/05/31 12:45:57;;;;;;;6.05;2.92;;;;;;;;;;6116889;23;20022;-59
2023/05/31 12:48:32;;;;;;;4.80;2.45;;;;;;;;;;6116188;23;20561;-59
2023/05/31 12:50:59;;;;;;;;;;;;;;;;;;6117571;23;20041;-58
2023/05/31 12:53:27;;;;;;;3.77;2.73;;;;;;;;;;6117379;23;19917;-64
2023/05/31 12:56:01;;;;;;;5.25;2.20;;;;;;;;;;6116674;23;20253;-64
2023/05/31 12:58:28;;;;;;;7.53;2.53;;;;;;;;;;6117307;23;20429;-64
2023/05/31 13:01:02;;;;;;;6.18;2.50;;;;;;;;;;6116359;23;20473;-64
2023/05/31 13:03:29;;;;;;;5.90;2.95;;;;;;;;;;6114521;23;20049;-59
2023/05/31 13:05:57;;;;;;;;;;;;;;;;;;6117651;23;20026;-55
2023/05/31 13:08:31;;;;;;;4.43;2.75;;;;;;;;;;6117619;23;19995;-56
2023/05/31 13:10:58;;;;;;;;;;;;;;;;;;6116853;23;20085;-55
2023/05/31 13:13:32;;;;;;;3.13;2.53;;;;;;;;;;6117541;23;19996;-55
2023/05/31 13:15:59;;;;;;;;;;;;;;;;;;6116295;23;20545;-56
2023/05/31 13:18:27;;;;;;;4.47;2.40;;;;;;;;;;6113983;23;20029;-54
2023/05/31 13:21:01;;;;;;;3.55;2.70;;;;;;;;;;6116701;23;20033;-58
2023/05/31 13:23:28;;;;;;;4.63;2.50;;;;;;;;;;6117292;23;20081;-59
2023/05/31 13:25:56;;;;;;;;;;;;;;;;;;6116333;23;20097;-58
2023/05/31 13:28:30;;;;;;;2.88;2.28;;;;;;;;;;6117200;23;19921;-58
2023/05/31 13:30:57;;;;;;;5.50;2.72;;;;;;;;;;6116749;23;20490;-53
2023/05/31 13:33:31;;;;;;;3.33;2.25;;;;;;;;;;6112678;23;20030;-58
2023/05/31 13:35:58;;;;;;;6.68;2.33;;;;;;;;;;6116007;23;20034;-55
2023/05/31 13:38:26;;;;;;;6.28;2.42;;;;;;;;;;6116549;23;20171;-55
2023/05/31 13:41:00;;;;;;;5.68;2.40;;;;;;;;;;6115708;23;20033;-54
2023/05/31 13:43:29;;;;;;;3.72;2.30;;;;;;;;;;6112010;23;20022;-54
2023/05/31 13:46:03;;;;;;;3.88;2.40;;;;;;;;;;6116603;23;20030;-55
2023/05/31 13:48:32;;;;;;;3.00;2.20;;;;;;;;;;6115139;23;20033;-56
2023/05/31 13:50:59;;;;;;;7.78;3.05;;;;;;;;;;6117304;23;20466;-50
2023/05/31 13:53:33;;;;;;;5.18;2.35;;;;;;;;;;6115487;23;20554;-49
2023/05/31 13:56:00;;;;;;;6.88;2.50;;;;;;;;;;6111534;23;20036;-50
2023/05/31 13:58:30;;;;;;;4.95;2.10;;;;;;;;;;6114831;23;20070;-53
2023/05/31 14:01:06;;;;;;;3.20;2.17;;;;;;;;;;6115781;23;20026;-59
2023/05/31 14:03:34;;;;;;;4.82;2.00;;;;;;;;;;6112885;23;20026;-56
2023/05/31 14:06:01;;;;;;;5.25;2.55;;;;;;;;;;6114892;23;20030;-53
2023/05/31 14:08:36;;;;;;;7.32;2.40;;;;;;;;;;6115323;23;20073;-53
2023/05/31 14:11:03;;;;;;;3.33;2.30;;;;;;;;;;6113360;23;20029;-51
2023/05/31 14:13:31;;;;;;;;;;;;;;;;;;6116226;23;20026;-54
2023/05/31 14:16:05;;;;;;;4.40;2.30;;;;;;;;;;6117038;23;19983;-56
2023/05/31 14:18:32;;;;;;;5.75;2.20;;;;;;;;;;6114895;23;20029;-62
2023/05/31 14:21:12;;;;;;;7.65;2.33;;;;;;;;;;6116365;23;20094;-60
2023/05/31 14:23:40;;;;;;;6.10;2.30;;;;;;;;;;6114853;23;20026;-62
2023/05/31 14:26:14;;;;;;;3.00;2.13;;;;;;;;;;6115210;23;20070;-62
2023/05/31 14:28:41;;;;;;;2.22;1.98;;;;;;;;;;6115747;23;20034;-62
2023/05/31 14:31:08;;;;;;;5.13;2.80;;;;;;;;;;6116221;23;20029;-62
2023/05/31 14:33:43;;;;;;;4.63;2.10;;;;;;;;;;6115441;23;20033;-61
2023/05/31 14:36:11;;;;;;;5.13;2.42;;;;;;;;;;6116370;23;20461;-50
2023/05/31 14:38:45;;;;;;;5.05;2.22;;;;;;;;;;6115778;23;20018;-50
2023/05/31 14:41:12;;;;;;;3.15;2.00;;;;;;;;;;6115182;23;20025;-47
2023/05/31 14:43:40;;;;;;;3.80;2.08;;;;;;;;;;6115686;23;20030;-52
2023/05/31 14:46:14;;;;;;;5.50;2.42;;;;;;;;;;6115515;23;20489;-58
2023/05/31 14:48:41;;;;;;;;;;;;;;;;;;6115037;23;20025;-49
2023/05/31 14:51:08;;;;;;;5.32;2.30;;;;;;;;;;6116512;23;19984;-50
2023/05/31 14:53:42;;;;;;;3.70;2.08;;;;;;;;;;6112096;23;20422;-49
2023/05/31 14:56:09;;;;;;;;;;;;;;;;;;6113768;23;20034;-53
2023/05/31 14:58:45;;;;;;;6.97;2.60;;;;;;;;;;6116845;23;19977;-48
2023/05/31 15:01:20;;;;;;;6.32;2.70;;;;;;;;;;6115399;23;20034;-52
2023/05/31 15:03:56;;;;;;;4.13;2.30;;;;;;;;;;6117799;23;20018;-52
2023/05/31 15:06:24;;;;;;;4.15;2.20;;;;;;;;;;6119233;23;20085;-54
2023/05/31 15:08:58;;;;;;;2.53;2.03;;;;;;;;;;6114077;23;20034;-57
2023/05/31 15:11:26;;;;;;;3.47;1.92;;;;;;;;;;6118315;23;20030;-55